Time;durP1;ratioP1;P1;durP2;ratioP2;P2;SDS_P1;SDS_P2;PMS_P1;PMS_P2;Temp;Humidity;BMP_temperature;BMP_pressure;BME280_temperature;BME280_humidity;BME280_pressure;Samples;Min_cycle;Max_cycle;Signal;HPM_P1;HPM_P2
2022/06/05 00:01:19;;;;;;;12.00;6.05;;;10.80;99.90;;;;;;5092404;28;20039;-88
2022/06/05 00:03:45;;;;;;;8.43;6.13;;;10.90;99.90;;;;;;5092419;28;20079;-88
2022/06/05 00:06:18;;;;;;;10.20;6.07;;;10.90;99.90;;;;;;5091218;28;20040;-87
2022/06/05 00:08:52;;;;;;;8.50;5.93;;;10.90;99.90;;;;;;5092413;28;20126;-88
2022/06/05 00:11:21;;;;;;;10.68;7.05;;;10.90;99.90;;;;;;5090355;28;20047;-88
2022/06/05 00:13:55;;;;;;;13.32;7.38;;;11.10;99.90;;;;;;5092246;28;20036;-87
2022/06/05 00:16:24;;;;;;;10.20;6.97;;;10.90;99.90;;;;;;5108448;28;20096;-88
2022/06/05 00:18:50;;;;;;;14.82;8.02;;;10.80;99.90;;;;;;5091006;28;20104;-87
2022/06/05 00:21:17;;;;;;;15.73;7.47;;;11.20;99.90;;;;;;5109184;28;20249;-87
2022/06/05 00:23:42;;;;;;;10.73;7.47;;;11.70;99.90;;;;;;5106647;28;20044;-88
2022/06/05 00:26:27;;;;;;;14.93;7.32;;;10.90;99.90;;;;;;5126183;27;20051;-88
2022/06/05 00:28:57;;;;;;;14.15;8.00;;;10.90;99.90;;;;;;5108048;28;20115;-88
2022/06/05 00:31:46;;;;;;;12.60;8.30;;;10.80;99.90;;;;;;5108352;28;20054;-88
2022/06/05 00:34:12;;;;;;;16.55;7.47;;;10.90;99.90;;;;;;5109838;28;20406;-88
2022/06/05 00:36:49;;;;;;;17.77;7.57;;;10.80;99.90;;;;;;5107092;28;20040;-87
2022/06/05 00:39:35;;;;;;;11.73;7.47;;;10.80;99.90;;;;;;5091864;28;20086;-88
2022/06/05 00:42:09;;;;;;;12.45;7.03;;;10.90;99.90;;;;;;5094190;28;20043;-88
2022/06/05 00:44:42;;;;;;;11.02;8.35;;;10.90;99.90;;;;;;5107214;28;20039;-88
2022/06/05 00:47:11;;;;;;;15.23;8.15;;;10.90;99.90;;;;;;5108548;28;20048;-88
2022/06/05 00:49:44;;;;;;;15.52;7.50;;;10.90;99.90;;;;;;5089699;28;20071;-88
2022/06/05 00:52:13;;;;;;;12.35;7.85;;;11.10;99.90;;;;;;5091842;28;20052;-88
2022/06/05 00:54:39;;;;;;;11.25;7.97;;;10.90;99.90;;;;;;5097841;28;20048;-88
2022/06/05 00:57:08;;;;;;;10.07;7.40;;;11.50;99.90;;;;;;5080987;28;20040;-87
2022/06/05 00:59:36;;;;;;;14.00;9.20;;;11.10;99.90;;;;;;5112376;28;20090;-88
2022/06/05 01:02:02;;;;;;;12.13;7.88;;;10.90;99.90;;;;;;5073828;28;20043;-87
2022/06/05 01:04:31;;;;;;;12.93;7.40;;;10.90;99.90;;;;;;5092312;28;20048;-88
2022/06/05 01:06:56;;;;;;;11.88;7.32;;;10.90;99.90;;;;;;5090183;28;20412;-88
2022/06/05 01:09:22;;;;;;;13.20;7.30;;;11.60;99.90;;;;;;5076259;28;20035;-88
2022/06/05 01:12:00;;;;;;;15.93;7.45;;;11.90;99.90;;;;;;5060155;28;20040;-87
2022/06/05 01:14:50;;;;;;;10.75;6.47;;;10.90;99.90;;;;;;5096887;28;20040;-88
2022/06/05 01:17:47;;;;;;;12.38;7.32;;;12.20;99.90;;;;;;5082563;28;20452;-88
2022/06/05 01:20:37;;;;;;;11.18;7.18;;;10.90;99.90;;;;;;5025514;28;20048;-88
2022/06/05 01:23:09;;;;;;;12.43;7.28;;;10.90;99.90;;;;;;5106488;28;20055;-87
2022/06/05 01:25:49;;;;;;;11.80;6.67;;;11.00;99.90;;;;;;5108138;28;20123;-88
2022/06/05 01:28:23;;;;;;;8.70;6.20;;;10.90;99.90;;;;;;5106466;28;20435;-87
2022/06/05 01:31:27;;;;;;;10.57;7.07;;;11.00;99.90;;;;;;5091263;28;20449;-88
2022/06/05 01:34:07;;;;;;;;;;;11.00;99.90;;;;;;5108143;28;20047;-88
2022/06/05 01:36:42;;;;;;;8.50;5.90;;;11.00;99.90;;;;;;5106475;28;20040;-88
2022/06/05 01:39:27;;;;;;;13.75;6.78;;;10.90;99.90;;;;;;5091095;28;20104;-88
2022/06/05 01:41:58;;;;;;;13.75;6.03;;;10.90;99.90;;;;;;5089731;28;20051;-87
2022/06/05 01:44:32;;;;;;;16.80;7.70;;;11.20;99.90;;;;;;5089255;28;20044;-87
2022/06/05 01:47:04;;;;;;;9.05;6.25;;;10.90;99.90;;;;;;5090475;28;20131;-87
2022/06/05 01:49:36;;;;;;;12.32;6.13;;;10.90;99.90;;;;;;5107613;28;20309;-88
2022/06/05 01:52:18;;;;;;;12.65;7.32;;;10.80;99.90;;;;;;5090347;28;20043;-87
2022/06/05 01:55:11;;;;;;;11.13;6.82;;;11.00;99.90;;;;;;5089360;28;20055;-88
2022/06/05 01:57:37;;;;;;;9.95;6.32;;;11.00;99.90;;;;;;5088477;28;20052;-88
2022/06/05 02:00:13;;;;;;;14.15;6.35;;;11.00;99.90;;;;;;5090394;28;20093;-88
2022/06/05 02:03:18;;;;;;;18.90;7.25;;;11.00;99.90;;;;;;5070911;28;20044;-88
2022/06/05 02:05:58;;;;;;;9.18;6.10;;;11.10;99.90;;;;;;5075571;28;20101;-87
2022/06/05 02:08:40;;;;;;;11.80;6.47;;;10.20;99.90;;;;;;5089759;28;20516;-88
2022/06/05 02:11:20;;;;;;;11.18;6.30;;;11.10;99.90;;;;;;5088155;28;20506;-87
2022/06/05 02:13:46;;;;;;;7.95;6.65;;;11.10;99.90;;;;;;5089487;28;20047;-88
2022/06/05 02:16:12;;;;;;;16.45;7.20;;;12.00;99.90;;;;;;5072268;28;20043;-88
2022/06/05 02:18:38;;;;;;;16.23;7.00;;;11.10;99.90;;;;;;5088650;28;20097;-87
2022/06/05 02:21:05;;;;;;;12.93;7.78;;;11.10;99.90;;;;;;5089817;28;20131;-88
2022/06/05 02:23:37;;;;;;;15.98;7.03;;;11.20;99.90;;;;;;5071044;28;20040;-88
2022/06/05 02:26:05;;;;;;;15.82;7.05;;;11.20;99.90;;;;;;5072726;28;20069;-87
2022/06/05 02:28:31;;;;;;;13.00;6.97;;;12.30;99.90;;;;;;5088480;28;20044;-88
2022/06/05 02:31:18;;;;;;;15.77;8.00;;;11.20;99.90;;;;;;5073713;28;20043;-88
2022/06/05 02:34:26;;;;;;;11.35;6.88;;;11.20;99.90;;;;;;5077327;28;20134;-88
2022/06/05 02:37:10;;;;;;;14.90;6.57;;;11.20;99.90;;;;;;5066679;28;20138;-88
2022/06/05 02:39:44;;;;;;;13.07;6.93;;;11.20;99.90;;;;;;5072977;28;20089;-87
2022/06/05 02:42:35;;;;;;;12.70;7.22;;;11.30;99.90;;;;;;5089018;28;20044;-86
2022/06/05 02:45:23;;;;;;;14.70;7.22;;;11.30;99.90;;;;;;5087218;28;20047;-87
2022/06/05 02:48:12;;;;;;;12.45;7.28;;;11.30;99.90;;;;;;5088962;28;20050;-87
2022/06/05 02:50:53;;;;;;;17.70;7.65;;;11.30;99.90;;;;;;5071894;28;20054;-87
2022/06/05 02:53:18;;;;;;;16.10;7.47;;;11.30;99.90;;;;;;5070355;28;20051;-87
2022/06/05 02:55:44;;;;;;;17.67;7.30;;;11.30;99.90;;;;;;5072295;28;20066;-87
2022/06/05 02:58:12;;;;;;;15.63;8.48;;;11.50;99.90;;;;;;5071045;28;20063;-87
2022/06/05 03:00:39;;;;;;;13.45;7.70;;;11.30;99.90;;;;;;5089170;28;20092;-87
2022/06/05 03:05:51;;;;;;;15.18;7.57;;;11.30;99.90;;;;;;5074643;28;20105;-86
2022/06/05 03:08:19;;;;;;;16.30;7.72;;;11.40;99.90;;;;;;5075370;28;20075;-86
2022/06/05 03:10:45;;;;;;;18.48;8.63;;;11.40;99.90;;;;;;5096690;28;20036;-87
2022/06/05 03:13:12;;;;;;;18.98;8.50;;;12.30;99.90;;;;;;5110802;28;20136;-88
2022/06/05 03:15:38;;;;;;;14.02;8.77;;;11.40;99.90;;;;;;5060774;28;20067;-87
2022/06/05 03:18:04;;;;;;;13.43;8.05;;;12.10;99.90;;;;;;5088936;28;20042;-88
2022/06/05 03:20:30;;;;;;;12.35;7.55;;;12.30;99.90;;;;;;5088867;28;20484;-88
2022/06/05 03:22:56;;;;;;;14.68;8.93;;;11.40;99.90;;;;;;5070657;28;20043;-87
2022/06/05 03:25:24;;;;;;;13.77;8.38;;;11.80;99.90;;;;;;5088922;28;20047;-87
2022/06/05 03:27:50;;;;;;;16.63;8.05;;;12.40;99.90;;;;;;5087470;28;20398;-87
2022/06/05 03:30:17;;;;;;;14.05;8.00;;;11.50;99.90;;;;;;5088804;28;20170;-88
2022/06/05 03:32:44;;;;;;;12.35;8.02;;;11.50;99.90;;;;;;5070889;28;20040;-86
2022/06/05 03:35:11;;;;;;;17.73;8.98;;;11.50;99.90;;;;;;5088325;28;20047;-86
2022/06/05 03:37:37;;;;;;;17.90;8.52;;;11.60;99.90;;;;;;5088589;28;20047;-87
2022/06/05 03:40:07;;;;;;;13.52;8.85;;;11.60;99.90;;;;;;5053769;28;20900;-87
2022/06/05 03:42:33;;;;;;;13.73;9.23;;;11.60;99.90;;;;;;5107159;28;20040;-88
2022/06/05 03:44:59;;;;;;;15.95;8.77;;;11.70;99.90;;;;;;5069855;28;20044;-88
2022/06/05 03:47:24;;;;;;;14.55;8.10;;;11.70;99.90;;;;;;5088324;28;20055;-87
2022/06/05 03:49:50;;;;;;;12.93;7.85;;;11.70;99.90;;;;;;5087206;28;20075;-88
2022/06/05 03:52:16;;;;;;;15.77;9.60;;;11.80;99.90;;;;;;5088343;28;20082;-86
2022/06/05 03:54:41;;;;;;;11.43;8.68;;;12.10;99.90;;;;;;5071052;28;20051;-86
2022/06/05 03:57:07;;;;;;;17.95;8.40;;;11.80;99.90;;;;;;5086861;28;20073;-88
2022/06/05 03:59:36;;;;;;;16.80;8.43;;;11.90;99.90;;;;;;5055435;28;20044;-87
2022/06/05 04:02:04;;;;;;;18.20;9.30;;;12.40;99.90;;;;;;5069906;28;20048;-87
2022/06/05 04:04:30;;;;;;;13.15;9.13;;;11.90;99.90;;;;;;5106760;28;20055;-88
2022/06/05 04:06:55;;;;;;;16.33;8.13;;;11.80;99.90;;;;;;5089248;28;20036;-87
2022/06/05 04:09:21;;;;;;;15.07;8.00;;;11.90;99.90;;;;;;5077086;28;20043;-88
2022/06/05 04:11:47;;;;;;;19.25;8.85;;;12.00;99.90;;;;;;5061095;28;20135;-88
2022/06/05 04:14:13;;;;;;;19.67;8.85;;;12.10;99.90;;;;;;5092386;28;20035;-88
2022/06/05 04:16:40;;;;;;;17.33;8.93;;;12.00;99.90;;;;;;5059350;28;20507;-88
2022/06/05 04:19:07;;;;;;;16.73;9.15;;;12.70;99.90;;;;;;5073532;28;20051;-88
2022/06/05 04:21:34;;;;;;;14.43;8.23;;;12.10;99.90;;;;;;5074900;28;20044;-88
2022/06/05 04:24:01;;;;;;;15.50;8.93;;;12.10;99.90;;;;;;5073873;28;20105;-88
2022/06/05 04:26:30;;;;;;;16.48;8.95;;;11.40;99.90;;;;;;5076619;28;20118;-88
2022/06/05 04:28:55;;;;;;;14.98;9.05;;;12.30;99.90;;;;;;5112263;28;20173;-88
2022/06/05 04:31:28;;;;;;;21.33;9.25;;;12.30;99.90;;;;;;5094110;28;20093;-87
2022/06/05 04:33:56;;;;;;;12.30;5.70;;;12.30;99.90;;;;;;5112471;28;20044;-87
2022/06/05 04:36:22;;;;;;;12.88;8.70;;;12.80;99.90;;;;;;5076632;28;20052;-87
2022/06/05 04:38:48;;;;;;;15.55;9.07;;;12.50;99.90;;;;;;5095054;28;20039;-87
2022/06/05 04:41:15;;;;;;;18.13;9.30;;;12.50;99.90;;;;;;5077200;28;20089;-87
2022/06/05 04:43:41;;;;;;;16.20;9.20;;;12.60;99.90;;;;;;5094831;28;20468;-87
2022/06/05 04:46:07;;;;;;;13.25;8.98;;;12.70;99.90;;;;;;5113352;28;20109;-87
2022/06/05 04:48:33;;;;;;;12.80;8.55;;;12.80;99.90;;;;;;5091576;28;20043;-88
2022/06/05 04:51:02;;;;;;;12.82;8.43;;;13.00;99.90;;;;;;5074824;28;20036;-87
2022/06/05 04:53:28;;;;;;;18.80;9.30;;;13.00;99.90;;;;;;5056238;28;20043;-88
2022/06/05 04:55:53;;;;;;;21.73;9.63;;;13.90;99.90;;;;;;5091411;28;20108;-88
2022/06/05 04:58:19;;;;;;;14.15;8.48;;;13.30;99.90;;;;;;5073631;28;20042;-88
2022/06/05 05:00:45;;;;;;;16.45;8.95;;;13.50;99.90;;;;;;5074082;28;20051;-87
2022/06/05 05:03:10;;;;;;;15.02;8.70;;;13.50;99.90;;;;;;5109864;28;20062;-87
2022/06/05 05:05:36;;;;;;;13.85;8.15;;;13.60;99.90;;;;;;5051788;28;20058;-87
2022/06/05 05:08:02;;;;;;;14.40;8.07;;;13.60;99.90;;;;;;5086816;28;20043;-87
2022/06/05 05:10:28;;;;;;;17.58;8.80;;;13.70;99.90;;;;;;5062569;28;20370;-88
2022/06/05 05:12:54;;;;;;;17.85;8.57;;;13.70;99.90;;;;;;5091529;28;20047;-88
2022/06/05 05:15:19;;;;;;;14.82;8.45;;;13.80;99.90;;;;;;5072948;28;20040;-88
2022/06/05 05:17:45;;;;;;;14.48;8.35;;;13.80;99.90;;;;;;5073997;28;20051;-88
2022/06/05 05:20:11;;;;;;;17.83;9.82;;;13.80;99.90;;;;;;5040409;28;20096;-89
2022/06/05 05:22:38;;;;;;;12.82;8.60;;;13.80;99.90;;;;;;5072884;28;20102;-88
2022/06/05 05:25:10;;;;;;;13.07;8.77;;;14.70;99.90;;;;;;5091013;28;20131;-88
2022/06/05 05:27:36;;;;;;;17.10;8.27;;;13.80;99.90;;;;;;5072478;28;20039;-88
2022/06/05 05:30:05;;;;;;;11.77;8.55;;;13.90;99.90;;;;;;5073892;28;20055;-88
2022/06/05 05:32:31;;;;;;;14.32;8.70;;;13.90;99.90;;;;;;5090063;28;20410;-88
2022/06/05 05:34:57;;;;;;;15.35;8.20;;;14.00;99.90;;;;;;5073413;28;20058;-89
2022/06/05 05:37:22;;;;;;;11.02;7.88;;;14.10;99.90;;;;;;5089067;28;20044;-88
2022/06/05 05:42:32;;;;;;;11.90;8.35;;;14.40;99.90;;;;;;5061616;28;20058;-89
2022/06/05 05:44:59;;;;;;;10.23;7.50;;;14.50;99.90;;;;;;5055493;28;20054;-88
2022/06/05 05:47:29;;;;;;;13.43;7.60;;;14.70;99.90;;;;;;5058950;28;20040;-89
2022/06/05 05:50:19;;;;;;;9.82;7.35;;;14.80;99.90;;;;;;5090980;28;20122;-86
2022/06/05 05:52:48;;;;;;;10.13;7.75;;;14.90;99.90;;;;;;5108741;28;20134;-87
2022/06/05 05:55:17;;;;;;;11.65;7.75;;;15.10;99.90;;;;;;5093074;28;20168;-88
2022/06/05 05:57:43;;;;;;;17.25;8.80;;;15.20;99.90;;;;;;5089746;28;20481;-87
2022/06/05 06:00:13;;;;;;;13.15;7.28;;;15.40;99.90;;;;;;5090378;28;20047;-88
2022/06/05 06:02:39;;;;;;;12.35;7.90;;;15.50;99.90;;;;;;5089422;28;20092;-88
2022/06/05 06:05:07;;;;;;;10.65;7.90;;;15.60;99.90;;;;;;5055672;28;20135;-87
2022/06/05 06:07:33;;;;;;;10.15;7.57;;;15.70;99.90;;;;;;5072989;28;20043;-88
2022/06/05 06:10:00;;;;;;;8.98;6.68;;;15.80;99.90;;;;;;5088400;28;20494;-88
2022/06/05 06:12:26;;;;;;;8.23;6.70;;;15.90;99.90;;;;;;5089890;28;20093;-88
2022/06/05 06:14:51;;;;;;;10.38;6.90;;;15.90;99.90;;;;;;5055001;28;20031;-87
2022/06/05 06:17:17;;;;;;;11.55;6.55;;;15.90;99.90;;;;;;5089790;28;20108;-88
2022/06/05 06:19:43;;;;;;;11.25;7.63;;;16.00;99.90;;;;;;5089407;28;20082;-88
2022/06/05 06:22:09;;;;;;;10.98;7.28;;;16.10;99.90;;;;;;5071978;28;20050;-88
2022/06/05 06:24:35;;;;;;;9.88;6.18;;;16.10;99.90;;;;;;5089754;28;20047;-88
2022/06/05 06:27:01;;;;;;;10.13;6.68;;;16.20;99.90;;;;;;5071162;28;20043;-88
2022/06/05 06:29:27;;;;;;;9.68;7.07;;;16.20;99.90;;;;;;5089783;28;20050;-88
2022/06/05 06:31:53;;;;;;;10.38;6.93;;;16.30;99.90;;;;;;5071298;28;20047;-89
2022/06/05 06:34:18;;;;;;;7.28;6.45;;;16.30;99.90;;;;;;5072526;28;20040;-87
2022/06/05 06:36:44;;;;;;;7.85;6.60;;;16.30;99.90;;;;;;5088662;28;20054;-88
2022/06/05 06:39:10;;;;;;;10.02;7.10;;;16.40;99.90;;;;;;5072242;28;20075;-88
2022/06/05 06:41:35;;;;;;;9.35;7.18;;;16.40;99.90;;;;;;5055981;28;20047;-89
2022/06/05 06:44:03;;;;;;;9.10;6.68;;;16.50;99.90;;;;;;5071204;28;20119;-88
2022/06/05 06:46:29;;;;;;;9.57;6.38;;;16.60;99.90;;;;;;5106558;28;20548;-88
2022/06/05 06:48:55;;;;;;;8.63;6.50;;;16.60;99.90;;;;;;5071381;28;20130;-88
2022/06/05 06:51:21;;;;;;;9.23;7.00;;;16.70;99.90;;;;;;5072815;28;20926;-88
2022/06/05 06:53:47;;;;;;;8.63;6.38;;;16.70;99.90;;;;;;5101109;28;20052;-88
2022/06/05 06:56:20;;;;;;;7.53;6.10;;;16.90;99.90;;;;;;5107666;28;20065;-87
2022/06/05 06:58:47;;;;;;;7.57;5.50;;;16.90;99.90;;;;;;5088826;28;20176;-88
2022/06/05 07:01:13;;;;;;;6.50;5.47;;;17.00;99.90;;;;;;5087501;28;20044;-87
2022/06/05 07:03:39;;;;;;;6.10;5.47;;;17.10;99.90;;;;;;5081261;28;20109;-89
2022/06/05 07:06:08;;;;;;;6.65;5.25;;;17.10;99.90;;;;;;5070756;28;20044;-89
2022/06/05 07:08:34;;;;;;;7.60;5.75;;;17.20;99.90;;;;;;5072663;28;20039;-88
2022/06/05 07:11:00;;;;;;;8.63;6.47;;;17.70;99.90;;;;;;5088099;28;20093;-89
2022/06/05 07:13:26;;;;;;;6.25;5.63;;;17.40;99.90;;;;;;5071799;28;20479;-89
2022/06/05 07:15:52;;;;;;;7.63;5.68;;;17.40;99.90;;;;;;5107373;28;20041;-89
2022/06/05 07:18:18;;;;;;;12.40;6.53;;;17.50;99.90;;;;;;5090446;28;20043;-89
2022/06/05 07:20:45;;;;;;;6.60;4.90;;;17.60;99.90;;;;;;5092587;28;20138;-89
2022/06/05 07:23:12;;;;;;;7.03;5.80;;;17.70;99.90;;;;;;5090524;28;20064;-89
2022/06/05 07:25:44;;;;;;;7.85;5.78;;;17.80;99.90;;;;;;5062643;28;20039;-88
2022/06/05 07:28:10;;;;;;;8.40;5.15;;;17.90;99.90;;;;;;5077291;28;20479;-89
2022/06/05 07:30:36;;;;;;;8.05;5.78;;;17.90;99.90;;;;;;5092407;28;20039;-89
2022/06/05 07:33:01;;;;;;;6.57;5.55;;;18.00;99.90;;;;;;5074217;28;20051;-89
2022/06/05 07:35:27;;;;;;;7.75;6.55;;;18.10;99.90;;;;;;5072699;28;20042;-89
2022/06/05 07:37:53;;;;;;;8.18;5.72;;;18.20;99.90;;;;;;5089850;28;20036;-89
2022/06/05 07:40:18;;;;;;;9.80;5.68;;;18.20;99.90;;;;;;5089861;28;20047;-89
2022/06/05 07:42:45;;;;;;;8.48;5.93;;;18.30;99.90;;;;;;5060225;28;20040;-88
2022/06/05 07:45:14;;;;;;;11.43;6.50;;;18.30;99.90;;;;;;5075726;28;20416;-88
2022/06/05 07:47:44;;;;;;;6.65;5.35;;;18.40;99.90;;;;;;5093501;28;20084;-88
2022/06/05 07:50:12;;;;;;;7.05;5.90;;;18.50;99.90;;;;;;5095306;28;20047;-88
2022/06/05 07:55:22;;;;;;;10.75;6.22;;;18.70;99.90;;;;;;5095768;28;20055;-88
2022/06/05 07:57:48;;;;;;;6.68;5.30;;;18.80;99.90;;;;;;5077573;28;20067;-88
2022/06/05 08:00:14;;;;;;;7.43;6.22;;;18.90;99.90;;;;;;5095482;28;20040;-88
2022/06/05 08:02:41;;;;;;;10.70;5.32;;;19.10;99.90;;;;;;5099564;28;20032;-89
2022/06/05 08:05:10;;;;;;;7.85;5.95;;;19.20;99.90;;;;;;5081174;28;20050;-89
2022/06/05 08:07:36;;;;;;;7.22;5.35;;;19.30;99.90;;;;;;5099579;28;20534;-89
2022/06/05 08:10:04;;;;;;;7.13;5.50;;;19.40;99.90;;;;;;5097239;28;20180;-89
2022/06/05 08:12:33;;;;;;;8.60;6.85;;;19.50;99.90;;;;;;5082634;28;20047;-89
2022/06/05 08:15:08;;;;;;;9.32;5.95;;;19.50;99.90;;;;;;5098254;28;20043;-89
2022/06/05 08:17:34;;;;;;;8.73;5.40;;;19.70;99.90;;;;;;5099377;28;20399;-89
2022/06/05 08:20:08;;;;;;;5.70;5.10;;;19.70;99.90;;;;;;5099151;28;20043;-90
2022/06/05 08:22:34;;;;;;;6.00;4.85;;;19.80;99.90;;;;;;5081063;28;20715;-89
2022/06/05 08:25:00;;;;;;;10.38;5.45;;;19.90;99.90;;;;;;5082600;28;20399;-89
2022/06/05 08:27:27;;;;;;;5.50;4.88;;;20.10;99.90;;;;;;5081462;28;20056;-89
2022/06/05 08:29:55;;;;;;;9.48;5.38;;;20.10;99.90;;;;;;5082412;28;20051;-89
2022/06/05 08:32:22;;;;;;;7.75;5.40;;;20.30;99.90;;;;;;5064464;28;20487;-90
2022/06/05 08:34:48;;;;;;;7.13;4.63;;;20.40;99.90;;;;;;5098580;28;20399;-89
2022/06/05 08:43:11;;;;;;;8.02;5.13;;;20.70;99.90;;;;;;5083475;28;20051;-90
2022/06/05 08:45:47;;;;;;;7.07;5.22;;;20.80;99.90;;;;;;5097474;28;20329;-89
2022/06/05 08:48:25;;;;;;;10.50;4.97;;;21.00;99.90;;;;;;5079422;28;20129;-90
2022/06/05 08:50:56;;;;;;;6.75;4.45;;;21.00;99.90;;;;;;5131289;28;20071;-89
2022/06/05 08:53:25;;;;;;;4.90;4.38;;;21.20;99.90;;;;;;5114885;28;20055;-89
2022/06/05 08:55:53;;;;;;;7.32;5.70;;;21.30;99.90;;;;;;5131769;28;20047;-91
2022/06/05 08:58:45;;;;;;;6.03;4.53;;;21.30;99.90;;;;;;5098442;28;20044;-90
2022/06/05 09:01:17;;;;;;;5.10;4.20;;;21.40;99.90;;;;;;5082492;28;20107;-89
2022/06/05 09:04:03;;;;;;;7.10;4.30;;;21.40;99.90;;;;;;5101697;28;20111;-89
2022/06/05 09:06:50;;;;;;;8.25;4.32;;;21.60;99.90;;;;;;5082878;28;20086;-89
2022/06/05 09:09:26;;;;;;;6.90;4.38;;;21.80;99.90;;;;;;5101409;28;20047;-89
2022/06/05 09:12:02;;;;;;;4.45;4.05;;;21.90;99.90;;;;;;5103396;28;20059;-91
2022/06/05 09:15:10;;;;;;;5.55;4.25;;;21.90;99.90;;;;;;5098062;28;20055;-88
2022/06/05 09:17:41;;;;;;;5.18;4.03;;;22.00;99.90;;;;;;5097815;28;20521;-89
2022/06/05 09:20:17;;;;;;;5.85;4.00;;;22.10;99.90;;;;;;5081201;28;20048;-89
2022/06/05 09:22:50;;;;;;;5.78;4.22;;;22.10;99.90;;;;;;5096149;28;20051;-88
2022/06/05 09:25:39;;;;;;;6.18;4.03;;;22.10;99.90;;;;;;5097595;28;20058;-89
2022/06/05 09:28:26;;;;;;;4.40;3.97;;;22.10;99.90;;;;;;5079582;28;20050;-89
2022/06/05 09:31:01;;;;;;;7.45;3.80;;;22.10;99.90;;;;;;5096315;28;20055;-89
2022/06/05 09:33:34;;;;;;;8.20;3.90;;;22.20;99.90;;;;;;5096118;28;20039;-90
2022/06/05 09:36:05;;;;;;;4.20;3.78;;;22.20;99.90;;;;;;5072040;28;20043;-89
2022/06/05 09:38:54;;;;;;;6.82;3.95;;;22.30;99.90;;;;;;5073710;28;20116;-90
2022/06/05 09:41:42;;;;;;;5.13;4.07;;;22.40;99.90;;;;;;5090528;28;20051;-90
2022/06/05 09:44:26;;;;;;;4.80;3.95;;;22.60;99.90;;;;;;5072472;28;20414;-90
2022/06/05 09:47:03;;;;;;;5.97;4.07;;;22.80;99.90;;;;;;5073633;28;20139;-88
2022/06/05 09:49:37;;;;;;;5.45;4.20;;;22.90;99.90;;;;;;5090241;28;20122;-89
2022/06/05 09:52:13;;;;;;;7.70;3.60;;;23.00;99.90;;;;;;5108027;28;20518;-88
2022/06/05 09:55:14;;;;;;;7.68;3.65;;;23.20;99.90;;;;;;5073549;28;20089;-89
2022/06/05 10:00:45;;;;;;;6.45;3.95;;;23.50;99.90;;;;;;5089216;28;20062;-92
2022/06/05 10:03:13;;;;;;;4.95;3.67;;;23.50;99.90;;;;;;5090170;28;20086;-90
2022/06/05 10:05:45;;;;;;;4.28;3.75;;;23.50;99.90;;;;;;5088312;28;20055;-89
2022/06/05 10:08:11;;;;;;;4.47;3.47;;;23.50;99.90;;;;;;5074183;28;20106;-88
2022/06/05 10:10:42;;;;;;;6.13;4.38;;;23.50;99.90;;;;;;5088891;28;20083;-89
2022/06/05 10:13:39;;;;;;;3.92;3.55;;;23.50;99.90;;;;;;5089310;28;20054;-89
2022/06/05 10:16:10;;;;;;;6.05;3.75;;;23.60;99.90;;;;;;5073090;28;20130;-88
2022/06/05 10:18:38;;;;;;;4.03;3.42;;;23.60;99.90;;;;;;5088512;28;20047;-89
2022/06/05 10:21:11;;;;;;;8.07;3.33;;;23.60;99.90;;;;;;5073254;28;20050;-87
2022/06/05 10:23:45;;;;;;;7.22;3.90;;;23.60;99.90;;;;;;5089610;28;20491;-84
2022/06/05 10:26:17;;;;;;;5.53;3.53;;;23.60;99.90;;;;;;5107202;28;20044;-85
2022/06/05 10:28:44;;;;;;;6.45;3.50;;;23.70;99.90;;;;;;5108097;28;20150;-85
2022/06/05 10:31:27;;;;;;;6.03;2.78;;;23.80;99.90;;;;;;5071119;28;20058;-83
2022/06/05 10:33:56;;;;;;;;;;;24.00;99.90;;;;;;5089970;28;20120;-82
2022/06/05 10:36:44;;;;;;;4.68;3.38;;;24.10;99.40;;;;;;5107006;28;20010;-82
2022/06/05 10:39:39;;;;;;;5.25;3.30;;;24.20;99.90;;;;;;5106946;28;20038;-87
2022/06/05 10:42:21;;;;;;;2.97;2.67;;;24.40;99.90;;;;;;5108156;28;20031;-84
2022/06/05 10:45:07;;;;;;;6.00;2.95;;;24.60;99.90;;;;;;5088659;28;20043;-87
2022/06/05 10:48:24;;;;;;;4.30;3.30;;;24.80;99.90;;;;;;5072599;28;20100;-89
2022/06/05 10:50:56;;;;;;;4.18;3.00;;;24.90;97.80;;;;;;5032433;28;20045;-89
2022/06/05 10:53:28;;;;;;;;;;;24.90;99.20;;;;;;5013219;28;20100;-84
2022/06/05 10:56:03;;;;;;;12.55;4.45;;;25.40;95.20;;;;;;5065863;28;19927;-85
2022/06/05 10:58:39;;;;;;;3.53;2.72;;;24.70;99.70;;;;;;5089545;28;20051;-83
2022/06/05 11:01:26;;;;;;;5.28;3.50;;;24.70;99.60;;;;;;5088109;28;20047;-83
2022/06/05 11:04:09;;;;;;;5.60;3.45;;;24.70;98.40;;;;;;5093538;28;20051;-83
2022/06/05 11:06:47;;;;;;;4.38;3.95;;;24.80;98.70;;;;;;5090603;28;20521;-82
2022/06/05 11:09:25;;;;;;;7.30;3.13;;;24.80;98.70;;;;;;5106052;28;20051;-81
2022/06/05 11:14:50;;;;;;;4.03;2.92;;;24.70;99.40;;;;;;5105934;28;20104;-82
2022/06/05 11:17:37;;;;;;;5.22;2.90;;;24.70;98.70;;;;;;5088444;28;20051;-87
2022/06/05 11:20:12;;;;;;;7.15;3.58;;;24.70;98.00;;;;;;5106780;28;20113;-84
2022/06/05 11:22:53;;;;;;;10.93;3.60;;;24.60;98.70;;;;;;5069699;28;20094;-83
2022/06/05 11:25:26;;;;;;;13.32;3.38;;;24.60;99.00;;;;;;5088736;28;20478;-83
2022/06/05 11:28:22;;;;;;;3.03;2.63;;;24.60;99.30;;;;;;5087717;28;20058;-86
2022/06/05 11:31:12;;;;;;;4.60;2.40;;;24.70;99.50;;;;;;5086968;28;20140;-83
2022/06/05 11:33:49;;;;;;;10.60;3.25;;;24.80;99.60;;;;;;5088218;28;20044;-83
2022/06/05 11:36:39;;;;;;;3.75;2.90;;;24.80;99.70;;;;;;5107248;28;20047;-84
2022/06/05 11:39:10;;;;;;;5.70;2.90;;;24.90;99.80;;;;;;5074673;28;20036;-84
2022/06/05 11:41:49;;;;;;;3.03;2.45;;;24.90;99.60;;;;;;5092550;28;20047;-86
2022/06/05 11:44:48;;;;;;;4.43;2.65;;;24.90;99.70;;;;;;5109236;28;20184;-85
2022/06/05 11:47:54;;;;;;;3.30;2.50;;;25.00;98.90;;;;;;5110392;28;20050;-86
2022/06/05 11:50:33;;;;;;;6.18;2.80;;;24.90;98.00;;;;;;5031205;28;20106;-87
2022/06/05 11:53:21;;;;;;;3.55;2.80;;;24.80;97.40;;;;;;5068990;28;20051;-86
2022/06/05 11:55:53;;;;;;;5.55;2.72;;;24.80;98.80;;;;;;5092016;28;20490;-87
2022/06/05 11:58:38;;;;;;;4.35;3.13;;;24.70;99.30;;;;;;5075472;28;20437;-85
2022/06/05 12:01:10;;;;;;;3.05;2.53;;;24.80;99.30;;;;;;5073762;28;20136;-86
2022/06/05 12:04:07;;;;;;;3.28;2.42;;;24.70;99.00;;;;;;5092088;28;20074;-86
2022/06/05 12:07:06;;;;;;;4.28;2.78;;;24.70;97.60;;;;;;5092341;28;20363;-83
2022/06/05 12:09:49;;;;;;;4.03;2.97;;;24.70;97.80;;;;;;5059263;28;20059;-83
2022/06/05 12:12:47;;;;;;;3.10;2.58;;;24.70;97.50;;;;;;5110879;28;20048;-84
2022/06/05 12:15:37;;;;;;;4.40;2.63;;;24.70;97.60;;;;;;5039416;28;20134;-85
2022/06/05 12:18:11;;;;;;;4.68;2.60;;;24.70;97.70;;;;;;5109555;28;20399;-86
2022/06/05 12:20:43;;;;;;;3.58;2.40;;;24.70;96.10;;;;;;5075325;28;20510;-83
2022/06/05 12:23:18;;;;;;;3.92;2.65;;;24.60;96.90;;;;;;5091533;28;20455;-84
2022/06/05 12:25:59;;;;;;;5.47;3.00;;;24.90;97.20;;;;;;5091434;28;20113;-84
2022/06/05 12:28:34;;;;;;;3.28;2.75;;;24.50;96.40;;;;;;5111299;28;20082;-83
2022/06/05 12:31:06;;;;;;;3.60;2.50;;;24.50;97.10;;;;;;5094692;28;20043;-81
2022/06/05 12:33:43;;;;;;;4.07;2.72;;;24.50;97.00;;;;;;5078868;28;20510;-83
2022/06/05 12:36:31;;;;;;;3.53;2.15;;;24.60;97.20;;;;;;5094542;28;20494;-83
2022/06/05 12:39:06;;;;;;;3.08;2.50;;;24.70;98.00;;;;;;5095015;28;20054;-83
2022/06/05 12:42:08;;;;;;;3.20;2.47;;;24.80;97.20;;;;;;5095788;28;20087;-84
2022/06/05 12:44:41;;;;;;;3.05;2.28;;;25.00;97.20;;;;;;5107498;28;20091;-82
2022/06/05 12:47:38;;;;;;;4.75;2.70;;;25.00;96.60;;;;;;5094448;28;20636;-81
2022/06/05 12:50:37;;;;;;;9.23;2.60;;;25.10;95.90;;;;;;5112525;28;20046;-82
2022/06/05 12:53:22;;;;;;;4.47;3.30;;;25.20;95.60;;;;;;5111414;28;20055;-83
2022/06/05 12:55:54;;;;;;;7.15;3.22;;;25.10;94.50;;;;;;5093739;28;20116;-83
2022/06/05 12:58:50;;;;;;;5.60;2.17;;;25.10;95.70;;;;;;5094980;28;20032;-86
2022/06/05 13:01:40;;;;;;;3.75;2.70;;;25.10;95.00;;;;;;5093508;28;20506;-84
2022/06/05 13:04:17;;;;;;;4.10;2.58;;;25.00;94.50;;;;;;5114244;28;20047;-83
2022/06/05 13:06:58;;;;;;;10.85;6.22;;;25.00;95.40;;;;;;5120500;28;20038;-83
2022/06/05 13:10:21;;;;;;;4.05;2.95;;;24.90;94.80;;;;;;5108565;28;20042;-83
2022/06/05 13:12:58;;;;;;;3.38;2.63;;;24.80;95.90;;;;;;5046338;28;20056;-82
2022/06/05 13:15:59;;;;;;;2.95;2.40;;;24.80;96.20;;;;;;5033992;28;20052;-82
2022/06/05 13:18:47;;;;;;;6.47;2.42;;;24.90;96.40;;;;;;5067000;28;20055;-82
2022/06/05 13:21:37;;;;;;;6.22;2.78;;;24.80;96.40;;;;;;5112067;28;20052;-82
2022/06/05 13:24:22;;;;;;;2.80;2.50;;;24.80;96.70;;;;;;5094399;28;20130;-84
2022/06/05 13:27:00;;;;;;;4.20;2.53;;;24.80;96.70;;;;;;5075841;28;20039;-84
2022/06/05 13:29:38;;;;;;;7.10;2.63;;;24.80;96.80;;;;;;5094362;28;20447;-84
2022/06/05 13:32:17;;;;;;;6.28;3.08;;;24.70;96.30;;;;;;5093102;28;20057;-83
2022/06/05 13:34:53;;;;;;;3.70;2.63;;;24.70;96.80;;;;;;5092877;28;20062;-83
2022/06/05 13:37:33;;;;;;;4.13;2.60;;;24.60;96.80;;;;;;5112818;28;20044;-82